Ixworth, United Kingdom
Current Conditions -  °F | °C
As of 1:24 PM on Thursday 18 Dec 2014 (Local Time) from EGUL Reporting Station
Overcast Overcast  
Wind Chill: 57°   Ceiling: 1900
Heat Index: 57°   Visibility: 6mi
Dew Point: 57°   Wind: 23mph
Humidity: 100%   Direction: 240°WSW
Pressure: 29.69"   Gusts: 33mph
Location:  52.3°N, 0.83°E
Report Text: EGUL 181324Z AUTO 24020G29KT 9999 OVC019 14/14 A2969 RMK AO2
Loading
Personal Weather Stations






























Interactive Weather Map New forecast layout! Learn more

10-Day Weather Forecast

Advertisements
Track Severe Weather on mobile